sensor_id;sensor_type;location;lat;lon;timestamp;P1;durP1;ratioP1;P2;durP2;ratioP2
6145;SDS011;3104;50.348;7.620;2022-12-07T00:01:15;8.90;;;7.07;;
6145;SDS011;3104;50.348;7.620;2022-12-07T00:03:43;12.07;;;9.73;;
6145;SDS011;3104;50.348;7.620;2022-12-07T00:06:11;11.83;;;7.00;;
6145;SDS011;3104;50.348;7.620;2022-12-07T00:08:37;10.67;;;7.67;;
6145;SDS011;3104;50.348;7.620;2022-12-07T00:11:13;9.70;;;8.17;;
6145;SDS011;3104;50.348;7.620;2022-12-07T00:13:41;9.00;;;6.53;;
6145;SDS011;3104;50.348;7.620;2022-12-07T00:18:34;10.90;;;8.03;;
6145;SDS011;3104;50.348;7.620;2022-12-07T00:21:03;10.23;;;7.80;;
6145;SDS011;3104;50.348;7.620;2022-12-07T00:23:30;9.47;;;6.37;;
6145;SDS011;3104;50.348;7.620;2022-12-07T00:25:55;8.80;;;6.90;;
6145;SDS011;3104;50.348;7.620;2022-12-07T00:28:21;8.90;;;6.53;;
6145;SDS011;3104;50.348;7.620;2022-12-07T00:30:47;11.57;;;7.13;;
6145;SDS011;3104;50.348;7.620;2022-12-07T00:33:12;10.03;;;7.17;;
6145;SDS011;3104;50.348;7.620;2022-12-07T00:35:38;7.10;;;6.40;;
6145;SDS011;3104;50.348;7.620;2022-12-07T00:38:03;8.67;;;6.97;;
6145;SDS011;3104;50.348;7.620;2022-12-07T00:40:29;9.60;;;6.70;;
6145;SDS011;3104;50.348;7.620;2022-12-07T00:42:55;7.80;;;6.50;;
6145;SDS011;3104;50.348;7.620;2022-12-07T00:45:20;11.73;;;7.27;;
6145;SDS011;3104;50.348;7.620;2022-12-07T00:47:46;7.40;;;6.57;;
6145;SDS011;3104;50.348;7.620;2022-12-07T00:50:11;11.30;;;6.87;;
6145;SDS011;3104;50.348;7.620;2022-12-07T00:52:37;9.77;;;7.03;;
6145;SDS011;3104;50.348;7.620;2022-12-07T00:55:02;10.30;;;7.93;;
6145;SDS011;3104;50.348;7.620;2022-12-07T00:57:29;10.10;;;7.50;;
6145;SDS011;3104;50.348;7.620;2022-12-07T00:59:55;9.07;;;7.10;;
6145;SDS011;3104;50.348;7.620;2022-12-07T01:02:22;9.83;;;7.10;;
6145;SDS011;3104;50.348;7.620;2022-12-07T01:04:48;9.50;;;7.97;;
6145;SDS011;3104;50.348;7.620;2022-12-07T01:07:13;8.50;;;7.37;;
6145;SDS011;3104;50.348;7.620;2022-12-07T01:09:39;9.87;;;7.60;;
6145;SDS011;3104;50.348;7.620;2022-12-07T01:12:05;10.23;;;7.53;;
6145;SDS011;3104;50.348;7.620;2022-12-07T01:14:30;9.47;;;7.30;;
6145;SDS011;3104;50.348;7.620;2022-12-07T01:16:56;10.30;;;7.60;;
6145;SDS011;3104;50.348;7.620;2022-12-07T01:19:21;10.53;;;7.93;;
6145;SDS011;3104;50.348;7.620;2022-12-07T01:21:47;9.70;;;8.10;;
6145;SDS011;3104;50.348;7.620;2022-12-07T01:24:12;10.07;;;7.03;;
6145;SDS011;3104;50.348;7.620;2022-12-07T01:26:38;9.30;;;7.20;;
6145;SDS011;3104;50.348;7.620;2022-12-07T01:29:04;9.27;;;7.00;;
6145;SDS011;3104;50.348;7.620;2022-12-07T01:31:30;8.87;;;7.23;;
6145;SDS011;3104;50.348;7.620;2022-12-07T01:33:57;12.23;;;7.93;;
6145;SDS011;3104;50.348;7.620;2022-12-07T01:36:24;8.73;;;7.17;;
6145;SDS011;3104;50.348;7.620;2022-12-07T01:38:51;9.33;;;7.70;;
6145;SDS011;3104;50.348;7.620;2022-12-07T01:41:21;9.70;;;7.27;;
6145;SDS011;3104;50.348;7.620;2022-12-07T01:46:43;9.17;;;8.00;;
6145;SDS011;3104;50.348;7.620;2022-12-07T01:49:55;12.57;;;8.07;;
6145;SDS011;3104;50.348;7.620;2022-12-07T01:54:52;10.13;;;8.90;;
6145;SDS011;3104;50.348;7.620;2022-12-07T01:57:21;11.40;;;9.13;;
6145;SDS011;3104;50.348;7.620;2022-12-07T01:59:47;11.00;;;8.03;;
6145;SDS011;3104;50.348;7.620;2022-12-07T02:02:32;9.70;;;8.07;;
6145;SDS011;3104;50.348;7.620;2022-12-07T02:05:00;11.00;;;8.50;;
6145;SDS011;3104;50.348;7.620;2022-12-07T02:07:27;13.07;;;8.77;;
6145;SDS011;3104;50.348;7.620;2022-12-07T02:09:54;12.83;;;9.60;;
6145;SDS011;3104;50.348;7.620;2022-12-07T02:12:20;13.47;;;8.13;;
6145;SDS011;3104;50.348;7.620;2022-12-07T02:14:48;12.10;;;9.03;;
6145;SDS011;3104;50.348;7.620;2022-12-07T02:17:19;11.87;;;9.27;;
6145;SDS011;3104;50.348;7.620;2022-12-07T02:31:52;15.43;;;9.60;;
6145;SDS011;3104;50.348;7.620;2022-12-07T02:36:55;13.90;;;10.17;;
6145;SDS011;3104;50.348;7.620;2022-12-07T02:40:09;13.37;;;9.10;;
6145;SDS011;3104;50.348;7.620;2022-12-07T02:42:19;14.10;;;10.53;;
6145;SDS011;3104;50.348;7.620;2022-12-07T02:44:51;12.13;;;9.17;;
6145;SDS011;3104;50.348;7.620;2022-12-07T02:47:17;13.13;;;9.07;;
6145;SDS011;3104;50.348;7.620;2022-12-07T02:49:45;12.90;;;10.27;;
6145;SDS011;3104;50.348;7.620;2022-12-07T02:52:11;12.57;;;9.23;;
6145;SDS011;3104;50.348;7.620;2022-12-07T02:54:37;12.17;;;8.70;;
6145;SDS011;3104;50.348;7.620;2022-12-07T02:57:06;13.83;;;9.77;;
6145;SDS011;3104;50.348;7.620;2022-12-07T03:02:28;14.10;;;9.80;;
6145;SDS011;3104;50.348;7.620;2022-12-07T03:05:03;12.90;;;8.87;;
6145;SDS011;3104;50.348;7.620;2022-12-07T03:10:40;18.17;;;10.53;;
6145;SDS011;3104;50.348;7.620;2022-12-07T03:13:28;15.23;;;10.13;;
6145;SDS011;3104;50.348;7.620;2022-12-07T03:16:10;15.77;;;10.63;;
6145;SDS011;3104;50.348;7.620;2022-12-07T03:21:31;13.23;;;9.03;;
6145;SDS011;3104;50.348;7.620;2022-12-07T03:24:03;13.53;;;10.07;;
6145;SDS011;3104;50.348;7.620;2022-12-07T03:26:38;15.03;;;10.03;;
6145;SDS011;3104;50.348;7.620;2022-12-07T03:29:28;12.13;;;9.10;;
6145;SDS011;3104;50.348;7.620;2022-12-07T03:32:19;11.70;;;8.90;;
6145;SDS011;3104;50.348;7.620;2022-12-07T03:37:23;12.83;;;9.30;;
6145;SDS011;3104;50.348;7.620;2022-12-07T03:42:47;10.20;;;9.10;;
6145;SDS011;3104;50.348;7.620;2022-12-07T03:45:14;11.23;;;8.77;;
6145;SDS011;3104;50.348;7.620;2022-12-07T03:50:31;12.53;;;9.13;;
6145;SDS011;3104;50.348;7.620;2022-12-07T03:55:56;9.60;;;8.20;;
6145;SDS011;3104;50.348;7.620;2022-12-07T03:58:23;12.67;;;9.67;;
6145;SDS011;3104;50.348;7.620;2022-12-07T04:00:50;15.23;;;11.20;;
6145;SDS011;3104;50.348;7.620;2022-12-07T04:03:16;11.03;;;9.47;;
6145;SDS011;3104;50.348;7.620;2022-12-07T04:05:42;11.90;;;8.00;;
6145;SDS011;3104;50.348;7.620;2022-12-07T04:08:08;11.10;;;8.40;;
6145;SDS011;3104;50.348;7.620;2022-12-07T04:10:34;13.63;;;8.93;;
6145;SDS011;3104;50.348;7.620;2022-12-07T04:13:00;9.47;;;8.47;;
6145;SDS011;3104;50.348;7.620;2022-12-07T04:15:26;15.40;;;9.90;;
6145;SDS011;3104;50.348;7.620;2022-12-07T04:17:53;14.97;;;9.17;;
6145;SDS011;3104;50.348;7.620;2022-12-07T04:20:19;9.70;;;8.10;;
6145;SDS011;3104;50.348;7.620;2022-12-07T04:22:45;11.90;;;8.93;;
6145;SDS011;3104;50.348;7.620;2022-12-07T04:25:11;11.67;;;7.97;;
6145;SDS011;3104;50.348;7.620;2022-12-07T04:27:37;13.37;;;10.70;;
6145;SDS011;3104;50.348;7.620;2022-12-07T04:30:02;11.93;;;8.80;;
6145;SDS011;3104;50.348;7.620;2022-12-07T04:32:29;10.50;;;8.77;;
6145;SDS011;3104;50.348;7.620;2022-12-07T04:34:54;10.87;;;8.77;;
6145;SDS011;3104;50.348;7.620;2022-12-07T04:37:20;12.83;;;8.87;;
6145;SDS011;3104;50.348;7.620;2022-12-07T04:39:46;10.93;;;8.53;;
6145;SDS011;3104;50.348;7.620;2022-12-07T04:42:12;11.27;;;7.90;;
6145;SDS011;3104;50.348;7.620;2022-12-07T04:44:38;11.67;;;9.47;;
6145;SDS011;3104;50.348;7.620;2022-12-07T04:47:03;12.30;;;9.37;;
6145;SDS011;3104;50.348;7.620;2022-12-07T04:49:30;14.47;;;9.80;;
6145;SDS011;3104;50.348;7.620;2022-12-07T04:51:56;11.37;;;8.47;;
6145;SDS011;3104;50.348;7.620;2022-12-07T04:54:22;13.13;;;9.10;;
6145;SDS011;3104;50.348;7.620;2022-12-07T04:56:47;12.67;;;8.97;;
6145;SDS011;3104;50.348;7.620;2022-12-07T04:59:13;11.63;;;8.93;;
6145;SDS011;3104;50.348;7.620;2022-12-07T05:01:40;13.13;;;9.37;;
6145;SDS011;3104;50.348;7.620;2022-12-07T05:04:06;11.13;;;8.90;;
6145;SDS011;3104;50.348;7.620;2022-12-07T05:06:32;16.13;;;10.57;;
6145;SDS011;3104;50.348;7.620;2022-12-07T05:08:58;11.37;;;10.07;;
6145;SDS011;3104;50.348;7.620;2022-12-07T05:11:23;14.13;;;10.80;;
6145;SDS011;3104;50.348;7.620;2022-12-07T05:14:07;12.43;;;9.33;;
6145;SDS011;3104;50.348;7.620;2022-12-07T05:16:53;12.93;;;10.60;;
6145;SDS011;3104;50.348;7.620;2022-12-07T05:19:18;13.93;;;10.53;;
6145;SDS011;3104;50.348;7.620;2022-12-07T05:21:44;14.27;;;10.20;;
6145;SDS011;3104;50.348;7.620;2022-12-07T05:24:11;13.70;;;9.53;;
6145;SDS011;3104;50.348;7.620;2022-12-07T05:26:38;13.80;;;9.33;;
6145;SDS011;3104;50.348;7.620;2022-12-07T05:29:03;14.17;;;10.77;;
6145;SDS011;3104;50.348;7.620;2022-12-07T05:31:29;17.33;;;10.80;;
6145;SDS011;3104;50.348;7.620;2022-12-07T05:33:55;15.83;;;10.43;;
6145;SDS011;3104;50.348;7.620;2022-12-07T05:36:21;14.73;;;10.30;;
6145;SDS011;3104;50.348;7.620;2022-12-07T05:38:47;14.03;;;9.80;;
6145;SDS011;3104;50.348;7.620;2022-12-07T05:41:14;13.20;;;10.80;;
6145;SDS011;3104;50.348;7.620;2022-12-07T05:44:00;12.53;;;9.63;;
6145;SDS011;3104;50.348;7.620;2022-12-07T05:46:26;15.53;;;11.13;;
6145;SDS011;3104;50.348;7.620;2022-12-07T05:48:51;13.57;;;10.43;;
6145;SDS011;3104;50.348;7.620;2022-12-07T05:51:17;11.97;;;8.97;;
6145;SDS011;3104;50.348;7.620;2022-12-07T05:53:43;14.03;;;9.53;;
6145;SDS011;3104;50.348;7.620;2022-12-07T05:56:09;12.73;;;9.60;;
6145;SDS011;3104;50.348;7.620;2022-12-07T05:58:35;12.97;;;9.67;;
6145;SDS011;3104;50.348;7.620;2022-12-07T06:01:19;11.63;;;9.63;;
6145;SDS011;3104;50.348;7.620;2022-12-07T06:03:44;16.50;;;11.77;;
6145;SDS011;3104;50.348;7.620;2022-12-07T06:06:10;13.17;;;9.90;;
6145;SDS011;3104;50.348;7.620;2022-12-07T06:08:36;15.33;;;10.40;;
6145;SDS011;3104;50.348;7.620;2022-12-07T06:11:01;12.70;;;10.00;;
6145;SDS011;3104;50.348;7.620;2022-12-07T06:13:46;12.20;;;10.07;;
6145;SDS011;3104;50.348;7.620;2022-12-07T06:16:11;11.67;;;8.40;;
6145;SDS011;3104;50.348;7.620;2022-12-07T06:18:37;11.40;;;9.20;;
6145;SDS011;3104;50.348;7.620;2022-12-07T06:21:02;14.70;;;10.63;;
6145;SDS011;3104;50.348;7.620;2022-12-07T06:23:28;11.90;;;8.93;;
6145;SDS011;3104;50.348;7.620;2022-12-07T06:25:54;12.60;;;9.30;;
6145;SDS011;3104;50.348;7.620;2022-12-07T06:28:19;11.30;;;8.87;;
6145;SDS011;3104;50.348;7.620;2022-12-07T06:30:45;14.27;;;10.50;;
6145;SDS011;3104;50.348;7.620;2022-12-07T06:33:10;13.77;;;10.03;;
6145;SDS011;3104;50.348;7.620;2022-12-07T06:35:36;14.00;;;9.13;;
6145;SDS011;3104;50.348;7.620;2022-12-07T06:38:02;12.10;;;9.87;;
6145;SDS011;3104;50.348;7.620;2022-12-07T06:40:27;11.43;;;10.23;;
6145;SDS011;3104;50.348;7.620;2022-12-07T06:42:53;14.60;;;9.90;;
6145;SDS011;3104;50.348;7.620;2022-12-07T06:45:18;13.37;;;9.60;;
6145;SDS011;3104;50.348;7.620;2022-12-07T06:47:44;15.30;;;9.20;;
6145;SDS011;3104;50.348;7.620;2022-12-07T06:50:09;14.90;;;10.70;;
6145;SDS011;3104;50.348;7.620;2022-12-07T06:52:35;14.83;;;10.60;;
6145;SDS011;3104;50.348;7.620;2022-12-07T06:55:00;12.70;;;9.40;;
6145;SDS011;3104;50.348;7.620;2022-12-07T06:57:26;14.17;;;9.73;;
6145;SDS011;3104;50.348;7.620;2022-12-07T06:59:52;16.43;;;9.97;;
6145;SDS011;3104;50.348;7.620;2022-12-07T07:02:18;12.63;;;10.23;;
6145;SDS011;3104;50.348;7.620;2022-12-07T07:04:43;13.97;;;9.73;;
6145;SDS011;3104;50.348;7.620;2022-12-07T07:07:09;13.83;;;10.40;;
6145;SDS011;3104;50.348;7.620;2022-12-07T07:09:35;12.57;;;9.57;;
6145;SDS011;3104;50.348;7.620;2022-12-07T07:12:00;17.50;;;10.07;;
6145;SDS011;3104;50.348;7.620;2022-12-07T07:14:26;12.30;;;9.33;;
6145;SDS011;3104;50.348;7.620;2022-12-07T07:16:52;14.50;;;10.23;;
6145;SDS011;3104;50.348;7.620;2022-12-07T07:19:17;12.50;;;9.80;;
6145;SDS011;3104;50.348;7.620;2022-12-07T07:21:43;11.53;;;9.00;;
6145;SDS011;3104;50.348;7.620;2022-12-07T07:24:09;12.17;;;10.93;;
6145;SDS011;3104;50.348;7.620;2022-12-07T07:26:34;19.10;;;12.23;;
6145;SDS011;3104;50.348;7.620;2022-12-07T07:29:00;14.50;;;10.00;;
6145;SDS011;3104;50.348;7.620;2022-12-07T07:31:25;14.03;;;8.97;;
6145;SDS011;3104;50.348;7.620;2022-12-07T07:33:51;12.70;;;10.30;;
6145;SDS011;3104;50.348;7.620;2022-12-07T07:36:17;14.83;;;10.17;;
6145;SDS011;3104;50.348;7.620;2022-12-07T07:38:42;13.73;;;11.90;;
6145;SDS011;3104;50.348;7.620;2022-12-07T07:41:08;12.37;;;10.67;;
6145;SDS011;3104;50.348;7.620;2022-12-07T07:43:33;15.03;;;12.03;;
6145;SDS011;3104;50.348;7.620;2022-12-07T07:45:59;11.80;;;10.60;;
6145;SDS011;3104;50.348;7.620;2022-12-07T07:48:25;11.40;;;8.87;;
6145;SDS011;3104;50.348;7.620;2022-12-07T07:50:50;11.30;;;9.60;;
6145;SDS011;3104;50.348;7.620;2022-12-07T07:53:16;14.23;;;9.10;;
6145;SDS011;3104;50.348;7.620;2022-12-07T07:55:41;13.87;;;8.67;;
6145;SDS011;3104;50.348;7.620;2022-12-07T07:58:15;11.90;;;8.00;;
6145;SDS011;3104;50.348;7.620;2022-12-07T08:00:41;16.23;;;10.70;;
6145;SDS011;3104;50.348;7.620;2022-12-07T08:03:06;9.43;;;7.90;;
6145;SDS011;3104;50.348;7.620;2022-12-07T08:05:32;9.77;;;7.67;;
6145;SDS011;3104;50.348;7.620;2022-12-07T08:07:57;10.10;;;7.93;;
6145;SDS011;3104;50.348;7.620;2022-12-07T08:10:23;12.97;;;9.37;;
6145;SDS011;3104;50.348;7.620;2022-12-07T08:12:48;8.80;;;7.13;;
6145;SDS011;3104;50.348;7.620;2022-12-07T08:15:37;10.83;;;8.80;;
6145;SDS011;3104;50.348;7.620;2022-12-07T08:18:04;10.10;;;8.33;;
6145;SDS011;3104;50.348;7.620;2022-12-07T08:20:31;11.37;;;10.20;;
6145;SDS011;3104;50.348;7.620;2022-12-07T08:22:57;12.27;;;9.30;;
6145;SDS011;3104;50.348;7.620;2022-12-07T08:25:23;9.73;;;8.23;;
6145;SDS011;3104;50.348;7.620;2022-12-07T08:27:50;10.57;;;8.73;;
6145;SDS011;3104;50.348;7.620;2022-12-07T08:30:16;10.70;;;8.70;;
6145;SDS011;3104;50.348;7.620;2022-12-07T08:32:44;10.73;;;9.70;;
6145;SDS011;3104;50.348;7.620;2022-12-07T08:35:10;14.20;;;8.70;;
6145;SDS011;3104;50.348;7.620;2022-12-07T08:37:36;11.37;;;8.17;;
6145;SDS011;3104;50.348;7.620;2022-12-07T08:40:02;11.77;;;9.80;;
6145;SDS011;3104;50.348;7.620;2022-12-07T08:42:29;10.30;;;9.00;;
6145;SDS011;3104;50.348;7.620;2022-12-07T08:45:02;9.20;;;8.20;;
6145;SDS011;3104;50.348;7.620;2022-12-07T08:47:32;13.20;;;8.60;;
6145;SDS011;3104;50.348;7.620;2022-12-07T08:49:58;10.70;;;9.70;;
6145;SDS011;3104;50.348;7.620;2022-12-07T08:52:28;10.03;;;8.43;;
6145;SDS011;3104;50.348;7.620;2022-12-07T08:54:55;12.70;;;9.27;;
6145;SDS011;3104;50.348;7.620;2022-12-07T08:57:21;11.33;;;8.40;;
6145;SDS011;3104;50.348;7.620;2022-12-07T08:59:47;9.93;;;7.60;;
6145;SDS011;3104;50.348;7.620;2022-12-07T09:02:12;12.17;;;8.67;;
6145;SDS011;3104;50.348;7.620;2022-12-07T09:04:38;8.33;;;7.43;;
6145;SDS011;3104;50.348;7.620;2022-12-07T09:07:03;8.47;;;7.07;;
6145;SDS011;3104;50.348;7.620;2022-12-07T09:09:29;7.47;;;6.50;;
6145;SDS011;3104;50.348;7.620;2022-12-07T09:11:55;11.10;;;7.07;;
6145;SDS011;3104;50.348;7.620;2022-12-07T09:14:20;8.23;;;6.50;;
6145;SDS011;3104;50.348;7.620;2022-12-07T09:16:46;10.90;;;7.10;;
6145;SDS011;3104;50.348;7.620;2022-12-07T09:19:12;9.47;;;7.30;;
6145;SDS011;3104;50.348;7.620;2022-12-07T09:21:38;8.93;;;7.10;;
6145;SDS011;3104;50.348;7.620;2022-12-07T09:24:03;9.53;;;6.10;;
6145;SDS011;3104;50.348;7.620;2022-12-07T09:26:29;9.33;;;7.63;;
6145;SDS011;3104;50.348;7.620;2022-12-07T09:28:54;10.47;;;7.13;;
6145;SDS011;3104;50.348;7.620;2022-12-07T09:31:20;7.77;;;6.17;;
6145;SDS011;3104;50.348;7.620;2022-12-07T09:33:45;10.07;;;5.93;;
6145;SDS011;3104;50.348;7.620;2022-12-07T09:36:11;7.57;;;6.63;;
6145;SDS011;3104;50.348;7.620;2022-12-07T09:38:37;9.17;;;7.30;;
6145;SDS011;3104;50.348;7.620;2022-12-07T09:41:06;15.00;;;7.80;;
6145;SDS011;3104;50.348;7.620;2022-12-07T09:43:33;9.67;;;7.53;;
6145;SDS011;3104;50.348;7.620;2022-12-07T09:46:01;9.13;;;6.07;;
6145;SDS011;3104;50.348;7.620;2022-12-07T09:48:35;15.73;;;7.60;;
6145;SDS011;3104;50.348;7.620;2022-12-07T09:51:10;9.13;;;7.13;;
6145;SDS011;3104;50.348;7.620;2022-12-07T09:53:41;10.33;;;6.40;;
6145;SDS011;3104;50.348;7.620;2022-12-07T09:56:08;10.03;;;6.90;;
6145;SDS011;3104;50.348;7.620;2022-12-07T09:58:38;9.03;;;5.90;;
6145;SDS011;3104;50.348;7.620;2022-12-07T10:03:33;7.63;;;6.10;;
6145;SDS011;3104;50.348;7.620;2022-12-07T10:06:02;14.87;;;8.43;;
6145;SDS011;3104;50.348;7.620;2022-12-07T10:08:28;10.13;;;7.43;;
6145;SDS011;3104;50.348;7.620;2022-12-07T10:10:55;11.40;;;7.00;;
6145;SDS011;3104;50.348;7.620;2022-12-07T10:13:22;7.30;;;5.37;;
6145;SDS011;3104;50.348;7.620;2022-12-07T10:16:00;10.80;;;6.60;;
6145;SDS011;3104;50.348;7.620;2022-12-07T10:18:30;7.50;;;6.27;;
6145;SDS011;3104;50.348;7.620;2022-12-07T10:23:35;9.10;;;6.73;;
6145;SDS011;3104;50.348;7.620;2022-12-07T10:28:53;7.13;;;6.37;;
6145;SDS011;3104;50.348;7.620;2022-12-07T10:31:20;9.93;;;6.97;;
6145;SDS011;3104;50.348;7.620;2022-12-07T10:33:55;12.60;;;6.10;;
6145;SDS011;3104;50.348;7.620;2022-12-07T10:39:00;9.03;;;7.17;;
6145;SDS011;3104;50.348;7.620;2022-12-07T10:41:29;10.63;;;6.20;;
6145;SDS011;3104;50.348;7.620;2022-12-07T10:43:55;12.03;;;6.60;;
6145;SDS011;3104;50.348;7.620;2022-12-07T11:00:13;9.20;;;5.80;;
6145;SDS011;3104;50.348;7.620;2022-12-07T11:02:45;15.77;;;10.43;;
6145;SDS011;3104;50.348;7.620;2022-12-07T11:05:33;7.37;;;4.90;;
6145;SDS011;3104;50.348;7.620;2022-12-07T11:13:45;9.90;;;5.47;;
6145;SDS011;3104;50.348;7.620;2022-12-07T11:18:51;7.50;;;5.43;;
6145;SDS011;3104;50.348;7.620;2022-12-07T11:24:22;6.70;;;5.30;;
6145;SDS011;3104;50.348;7.620;2022-12-07T11:35:22;9.87;;;7.07;;
6145;SDS011;3104;50.348;7.620;2022-12-07T11:37:51;5.80;;;4.10;;
6145;SDS011;3104;50.348;7.620;2022-12-07T11:43:13;8.03;;;5.03;;
6145;SDS011;3104;50.348;7.620;2022-12-07T11:46:08;8.97;;;4.57;;
6145;SDS011;3104;50.348;7.620;2022-12-07T11:48:41;5.60;;;4.10;;
6145;SDS011;3104;50.348;7.620;2022-12-07T11:51:10;9.50;;;5.10;;
6145;SDS011;3104;50.348;7.620;2022-12-07T11:56:21;5.20;;;3.80;;
6145;SDS011;3104;50.348;7.620;2022-12-07T11:58:57;6.17;;;4.77;;
6145;SDS011;3104;50.348;7.620;2022-12-07T12:04:27;4.90;;;3.70;;
6145;SDS011;3104;50.348;7.620;2022-12-07T12:07:03;5.00;;;2.00;;
6145;SDS011;3104;50.348;7.620;2022-12-07T12:09:33;7.30;;;2.93;;
6145;SDS011;3104;50.348;7.620;2022-12-07T12:26:06;4.90;;;4.40;;
6145;SDS011;3104;50.348;7.620;2022-12-07T12:28:40;2.93;;;2.73;;
6145;SDS011;3104;50.348;7.620;2022-12-07T12:33:47;6.33;;;2.27;;
6145;SDS011;3104;50.348;7.620;2022-12-07T12:46:55;5.27;;;1.97;;
6145;SDS011;3104;50.348;7.620;2022-12-07T12:54:23;7.57;;;3.57;;
6145;SDS011;3104;50.348;7.620;2022-12-07T13:01:42;2.97;;;1.30;;
6145;SDS011;3104;50.348;7.620;2022-12-07T13:04:23;1.70;;;1.43;;
6145;SDS011;3104;50.348;7.620;2022-12-07T13:06:52;2.93;;;1.43;;
6145;SDS011;3104;50.348;7.620;2022-12-07T13:09:19;6.67;;;4.10;;
6145;SDS011;3104;50.348;7.620;2022-12-07T13:11:48;2.37;;;2.17;;
6145;SDS011;3104;50.348;7.620;2022-12-07T13:17:04;2.60;;;1.70;;
6145;SDS011;3104;50.348;7.620;2022-12-07T13:27:43;2.50;;;2.13;;
6145;SDS011;3104;50.348;7.620;2022-12-07T13:30:21;3.13;;;2.27;;
6145;SDS011;3104;50.348;7.620;2022-12-07T13:32:51;2.47;;;1.43;;
6145;SDS011;3104;50.348;7.620;2022-12-07T13:35:29;3.73;;;2.00;;
6145;SDS011;3104;50.348;7.620;2022-12-07T13:38:22;1.57;;;1.33;;
6145;SDS011;3104;50.348;7.620;2022-12-07T13:41:04;2.90;;;1.83;;
6145;SDS011;3104;50.348;7.620;2022-12-07T13:43:45;3.50;;;1.80;;
6145;SDS011;3104;50.348;7.620;2022-12-07T13:46:16;2.30;;;1.43;;
6145;SDS011;3104;50.348;7.620;2022-12-07T13:48:45;2.50;;;1.23;;
6145;SDS011;3104;50.348;7.620;2022-12-07T13:53:47;1.53;;;1.30;;
6145;SDS011;3104;50.348;7.620;2022-12-07T13:56:13;1.50;;;1.30;;
6145;SDS011;3104;50.348;7.620;2022-12-07T13:58:40;2.77;;;1.47;;
6145;SDS011;3104;50.348;7.620;2022-12-07T14:01:07;3.73;;;2.00;;
6145;SDS011;3104;50.348;7.620;2022-12-07T14:03:33;2.27;;;2.00;;
6145;SDS011;3104;50.348;7.620;2022-12-07T14:06:13;4.97;;;2.33;;
6145;SDS011;3104;50.348;7.620;2022-12-07T14:08:41;4.60;;;2.10;;
6145;SDS011;3104;50.348;7.620;2022-12-07T14:11:10;7.17;;;2.27;;
6145;SDS011;3104;50.348;7.620;2022-12-07T14:14:02;5.43;;;2.13;;
6145;SDS011;3104;50.348;7.620;2022-12-07T14:16:30;5.20;;;2.90;;
6145;SDS011;3104;50.348;7.620;2022-12-07T14:19:02;4.83;;;2.03;;
6145;SDS011;3104;50.348;7.620;2022-12-07T14:21:30;3.30;;;3.00;;
6145;SDS011;3104;50.348;7.620;2022-12-07T14:24:07;1.80;;;1.70;;
6145;SDS011;3104;50.348;7.620;2022-12-07T14:26:42;3.23;;;1.53;;
6145;SDS011;3104;50.348;7.620;2022-12-07T14:29:29;3.00;;;2.00;;
6145;SDS011;3104;50.348;7.620;2022-12-07T14:31:58;2.40;;;1.47;;
6145;SDS011;3104;50.348;7.620;2022-12-07T14:34:52;11.33;;;8.53;;
6145;SDS011;3104;50.348;7.620;2022-12-07T14:37:19;6.17;;;4.40;;
6145;SDS011;3104;50.348;7.620;2022-12-07T14:39:45;11.13;;;6.07;;
6145;SDS011;3104;50.348;7.620;2022-12-07T14:42:10;39.20;;;26.07;;
6145;SDS011;3104;50.348;7.620;2022-12-07T14:44:36;19.20;;;16.20;;
6145;SDS011;3104;50.348;7.620;2022-12-07T14:47:01;7.93;;;4.73;;
6145;SDS011;3104;50.348;7.620;2022-12-07T14:49:27;9.60;;;6.73;;
6145;SDS011;3104;50.348;7.620;2022-12-07T14:51:53;3.47;;;3.00;;
6145;SDS011;3104;50.348;7.620;2022-12-07T14:54:19;2.70;;;2.37;;
6145;SDS011;3104;50.348;7.620;2022-12-07T14:56:47;4.60;;;2.90;;
6145;SDS011;3104;50.348;7.620;2022-12-07T14:59:15;2.93;;;2.23;;
6145;SDS011;3104;50.348;7.620;2022-12-07T15:01:41;3.73;;;3.40;;
6145;SDS011;3104;50.348;7.620;2022-12-07T15:04:07;3.17;;;2.80;;
6145;SDS011;3104;50.348;7.620;2022-12-07T15:06:32;7.73;;;4.30;;
6145;SDS011;3104;50.348;7.620;2022-12-07T15:08:58;3.20;;;3.00;;
6145;SDS011;3104;50.348;7.620;2022-12-07T15:11:23;12.30;;;10.13;;
6145;SDS011;3104;50.348;7.620;2022-12-07T15:13:49;5.50;;;5.00;;
6145;SDS011;3104;50.348;7.620;2022-12-07T15:16:33;7.13;;;3.57;;
6145;SDS011;3104;50.348;7.620;2022-12-07T15:19:04;7.13;;;6.20;;
6145;SDS011;3104;50.348;7.620;2022-12-07T15:21:33;4.33;;;2.93;;
6145;SDS011;3104;50.348;7.620;2022-12-07T15:23:59;3.57;;;2.67;;
6145;SDS011;3104;50.348;7.620;2022-12-07T15:26:24;2.93;;;2.30;;
6145;SDS011;3104;50.348;7.620;2022-12-07T15:28:52;3.53;;;2.70;;
6145;SDS011;3104;50.348;7.620;2022-12-07T15:31:18;7.27;;;3.90;;
6145;SDS011;3104;50.348;7.620;2022-12-07T15:33:44;4.97;;;3.90;;
6145;SDS011;3104;50.348;7.620;2022-12-07T15:36:15;10.93;;;3.77;;
6145;SDS011;3104;50.348;7.620;2022-12-07T15:38:46;9.63;;;4.10;;
6145;SDS011;3104;50.348;7.620;2022-12-07T15:41:12;5.60;;;4.60;;
6145;SDS011;3104;50.348;7.620;2022-12-07T15:43:37;8.77;;;3.17;;
6145;SDS011;3104;50.348;7.620;2022-12-07T15:46:21;3.67;;;3.27;;
6145;SDS011;3104;50.348;7.620;2022-12-07T15:48:47;6.70;;;5.50;;
6145;SDS011;3104;50.348;7.620;2022-12-07T15:51:13;6.43;;;5.10;;
6145;SDS011;3104;50.348;7.620;2022-12-07T15:53:38;3.33;;;2.67;;
6145;SDS011;3104;50.348;7.620;2022-12-07T15:56:07;3.30;;;3.00;;
6145;SDS011;3104;50.348;7.620;2022-12-07T15:58:34;6.37;;;3.20;;
6145;SDS011;3104;50.348;7.620;2022-12-07T16:00:59;5.07;;;3.20;;
6145;SDS011;3104;50.348;7.620;2022-12-07T16:03:26;5.73;;;3.37;;
6145;SDS011;3104;50.348;7.620;2022-12-07T16:05:52;6.00;;;3.30;;
6145;SDS011;3104;50.348;7.620;2022-12-07T16:08:18;6.80;;;3.27;;
6145;SDS011;3104;50.348;7.620;2022-12-07T16:10:44;4.43;;;3.80;;
6145;SDS011;3104;50.348;7.620;2022-12-07T16:13:12;7.97;;;3.50;;
6145;SDS011;3104;50.348;7.620;2022-12-07T16:15:42;6.40;;;3.73;;
6145;SDS011;3104;50.348;7.620;2022-12-07T16:18:08;10.20;;;3.73;;
6145;SDS011;3104;50.348;7.620;2022-12-07T16:20:34;3.13;;;2.63;;
6145;SDS011;3104;50.348;7.620;2022-12-07T16:23:02;4.03;;;2.30;;
6145;SDS011;3104;50.348;7.620;2022-12-07T16:25:28;3.90;;;2.53;;
6145;SDS011;3104;50.348;7.620;2022-12-07T16:27:53;3.17;;;2.30;;
6145;SDS011;3104;50.348;7.620;2022-12-07T16:30:19;2.60;;;2.20;;
6145;SDS011;3104;50.348;7.620;2022-12-07T16:32:45;7.97;;;2.70;;
6145;SDS011;3104;50.348;7.620;2022-12-07T16:35:11;4.60;;;2.50;;
6145;SDS011;3104;50.348;7.620;2022-12-07T16:37:37;3.50;;;2.30;;
6145;SDS011;3104;50.348;7.620;2022-12-07T16:40:03;3.70;;;3.10;;
6145;SDS011;3104;50.348;7.620;2022-12-07T16:42:33;6.33;;;2.83;;
6145;SDS011;3104;50.348;7.620;2022-12-07T16:45:00;3.40;;;3.10;;
6145;SDS011;3104;50.348;7.620;2022-12-07T16:47:26;3.93;;;3.17;;
6145;SDS011;3104;50.348;7.620;2022-12-07T16:49:51;4.17;;;3.67;;
6145;SDS011;3104;50.348;7.620;2022-12-07T16:52:18;6.93;;;4.17;;
6145;SDS011;3104;50.348;7.620;2022-12-07T16:54:44;4.57;;;3.90;;
6145;SDS011;3104;50.348;7.620;2022-12-07T16:57:10;6.70;;;3.13;;
6145;SDS011;3104;50.348;7.620;2022-12-07T16:59:35;5.80;;;2.90;;
6145;SDS011;3104;50.348;7.620;2022-12-07T17:02:01;6.00;;;2.77;;
6145;SDS011;3104;50.348;7.620;2022-12-07T17:04:27;3.50;;;2.73;;
6145;SDS011;3104;50.348;7.620;2022-12-07T17:06:53;3.10;;;2.67;;
6145;SDS011;3104;50.348;7.620;2022-12-07T17:09:19;5.23;;;3.37;;
6145;SDS011;3104;50.348;7.620;2022-12-07T17:11:45;7.73;;;5.53;;
6145;SDS011;3104;50.348;7.620;2022-12-07T17:14:11;4.93;;;3.13;;
6145;SDS011;3104;50.348;7.620;2022-12-07T17:16:55;5.30;;;3.50;;
6145;SDS011;3104;50.348;7.620;2022-12-07T17:19:20;5.23;;;3.63;;
6145;SDS011;3104;50.348;7.620;2022-12-07T17:21:46;4.47;;;3.23;;
6145;SDS011;3104;50.348;7.620;2022-12-07T17:24:13;4.03;;;3.50;;
6145;SDS011;3104;50.348;7.620;2022-12-07T17:26:42;3.93;;;3.20;;
6145;SDS011;3104;50.348;7.620;2022-12-07T17:29:10;3.93;;;3.33;;
6145;SDS011;3104;50.348;7.620;2022-12-07T17:31:37;5.63;;;3.30;;
6145;SDS011;3104;50.348;7.620;2022-12-07T17:34:03;4.70;;;3.67;;
6145;SDS011;3104;50.348;7.620;2022-12-07T17:36:29;5.50;;;3.97;;
6145;SDS011;3104;50.348;7.620;2022-12-07T17:38:56;4.70;;;3.10;;